createdAt,value
2022-09-02T00:00:33.623Z,70.59
2022-09-02T00:01:33.618Z,70.69
2022-09-02T00:02:33.698Z,70.89
2022-09-02T00:03:33.654Z,70.89
2022-09-02T00:04:33.605Z,70.79
2022-09-02T00:05:33.583Z,70.83
2022-09-02T00:06:33.557Z,70.93
2022-09-02T00:07:33.581Z,70.93
2022-09-02T00:08:33.506Z,70.93
2022-09-02T00:09:33.565Z,71.33
2022-09-02T00:10:33.657Z,73.05
2022-09-02T00:11:33.493Z,73.85
2022-09-02T00:12:33.474Z,74.05
2022-09-02T00:13:33.458Z,73.89
2022-09-02T00:14:33.483Z,73.89
2022-09-02T00:15:33.448Z,73.79
2022-09-02T00:16:33.634Z,73.99
2022-09-02T00:17:33.446Z,73.22
2022-09-02T00:18:33.398Z,72.91
2022-09-02T00:19:33.412Z,74.40
2022-09-02T00:20:33.365Z,74.84
2022-09-02T00:21:33.356Z,74.93
2022-09-02T00:22:33.346Z,75.04
2022-09-02T00:23:33.354Z,74.73
2022-09-02T00:24:33.316Z,74.22
2022-09-02T00:25:33.307Z,73.11
2022-09-02T00:26:33.314Z,72.58
2022-09-02T00:27:33.280Z,72.48
2022-09-02T00:28:33.256Z,72.38
2022-09-02T00:29:33.276Z,72.78
2022-09-02T00:30:33.239Z,73.49
2022-09-02T00:31:33.296Z,73.28
2022-09-02T00:32:33.196Z,73.28
2022-09-02T00:33:33.202Z,72.88
2022-09-02T00:34:33.195Z,72.58
2022-09-02T00:35:33.218Z,72.17
2022-09-02T00:36:33.156Z,71.97
2022-09-02T00:37:33.147Z,72.17
2022-09-02T00:38:33.128Z,72.58
2022-09-02T00:39:33.125Z,73.18
2022-09-02T00:40:33.190Z,73.79
2022-09-02T00:41:33.147Z,74.22
2022-09-02T00:42:33.089Z,74.63
2022-09-02T00:43:33.067Z,74.63
2022-09-02T00:44:33.037Z,75.44
2022-09-02T00:45:33.122Z,76.28
2022-09-02T00:46:33.048Z,75.98
2022-09-02T00:47:33.127Z,75.68
2022-09-02T00:48:32.999Z,75.78
2022-09-02T00:49:33.008Z,76.02
2022-09-02T00:50:32.987Z,76.02
2022-09-02T00:51:32.967Z,76.12
2022-09-02T00:52:32.937Z,75.92
2022-09-02T00:53:32.967Z,75.81
2022-09-02T00:54:32.974Z,76.02
2022-09-02T00:55:32.914Z,76.32
2022-09-02T00:56:32.884Z,76.32
2022-09-02T00:57:32.897Z,76.93
2022-09-02T00:58:32.875Z,77.43
2022-09-02T00:59:32.959Z,77.53
2022-09-02T01:00:34.733Z,76.42
2022-09-02T01:01:32.942Z,76.82
2022-09-02T01:02:32.807Z,76.42
2022-09-02T01:03:32.797Z,76.22
2022-09-02T01:04:32.794Z,76.22
2022-09-02T01:05:32.791Z,76.32
2022-09-02T01:06:32.771Z,76.52
2022-09-02T01:07:32.738Z,76.62
2022-09-02T01:08:32.752Z,76.42
2022-09-02T01:09:32.801Z,76.05
2022-09-02T01:10:32.720Z,76.05
2022-09-02T01:11:32.721Z,76.35
2022-09-02T01:12:32.670Z,76.46
2022-09-02T01:13:32.671Z,76.76
2022-09-02T01:14:32.659Z,77.87
2022-09-02T01:15:32.649Z,77.57
2022-09-02T01:16:32.645Z,77.17
2022-09-02T01:17:32.802Z,76.35
2022-09-02T01:18:32.613Z,76.46
2022-09-02T01:19:32.668Z,76.56
2022-09-02T01:20:32.612Z,77.17
2022-09-02T01:21:32.568Z,77.57
2022-09-02T01:22:32.528Z,77.67
2022-09-02T01:23:34.768Z,77.47
2022-09-02T01:24:32.514Z,75.14
2022-09-02T01:25:32.539Z,74.30
2022-09-02T01:26:32.497Z,73.90
2022-09-02T01:27:32.488Z,74.10
2022-09-02T01:28:32.540Z,73.59
2022-09-02T01:29:32.461Z,73.15
2022-09-02T01:30:32.439Z,72.85
2022-09-02T01:31:32.485Z,72.75
2022-09-02T01:32:32.410Z,72.85
2022-09-02T01:33:32.395Z,72.55
2022-09-02T01:34:32.388Z,72.55
2022-09-02T01:35:32.387Z,72.44
2022-09-02T01:36:32.379Z,72.85
2022-09-02T01:37:32.354Z,72.55
2022-09-02T01:38:32.324Z,72.34
2022-09-02T01:39:32.313Z,72.24
2022-09-02T01:40:32.370Z,72.34
2022-09-02T01:41:32.277Z,72.34
2022-09-02T01:42:32.276Z,72.34
2022-09-02T01:43:32.290Z,72.24
2022-09-02T01:44:32.247Z,72.34
2022-09-02T01:45:32.218Z,72.04
2022-09-02T01:46:32.253Z,72.04
2022-09-02T01:47:32.207Z,72.04
2022-09-02T01:48:32.196Z,71.84
2022-09-02T01:49:32.526Z,72.24
2022-09-02T01:50:32.177Z,72.14
2022-09-02T01:51:32.178Z,72.04
2022-09-02T01:52:32.158Z,72.04
2022-09-02T01:53:32.108Z,72.24
2022-09-02T01:54:32.106Z,72.04
2022-09-02T01:55:32.141Z,72.64
2022-09-02T01:56:32.179Z,72.14
2022-09-02T01:57:32.057Z,72.24
2022-09-02T01:58:32.087Z,72.04
2022-09-02T01:59:32.055Z,72.24
2022-09-02T02:00:32.084Z,72.44
2022-09-02T02:01:32.115Z,72.95
2022-09-02T02:02:32.020Z,73.05
2022-09-02T02:03:31.991Z,72.64
2022-09-02T02:04:31.982Z,72.88
2022-09-02T02:05:31.974Z,73.49
2022-09-02T02:06:31.949Z,72.78
2022-09-02T02:07:31.949Z,72.99
2022-09-02T02:08:31.919Z,73.08
2022-09-02T02:09:31.889Z,72.99
2022-09-02T02:10:31.939Z,73.19
2022-09-02T02:11:31.867Z,73.28
2022-09-02T02:12:31.869Z,73.19
2022-09-02T02:13:31.866Z,73.28
2022-09-02T02:14:31.852Z,73.39
2022-09-02T02:16:01.944Z,73.59
2022-09-02T02:17:01.776Z,73.83
2022-09-02T02:18:01.733Z,73.72
2022-09-02T02:19:01.746Z,73.83
2022-09-02T02:20:01.698Z,73.93
2022-09-02T02:21:01.766Z,74.23
2022-09-02T02:22:01.685Z,74.63
2022-09-02T02:23:01.655Z,74.63
2022-09-02T02:24:01.642Z,74.43
2022-09-02T02:25:01.656Z,74.43
2022-09-02T02:26:01.608Z,74.33
2022-09-02T02:27:01.587Z,74.23
2022-09-02T02:28:02.598Z,74.74
2022-09-02T02:29:01.594Z,74.54
2022-09-02T02:30:01.557Z,74.43
2022-09-02T02:31:01.628Z,74.74
2022-09-02T02:32:01.531Z,74.63
2022-09-02T02:33:01.517Z,74.63
2022-09-02T02:34:01.516Z,74.54
2022-09-02T02:35:01.507Z,74.63
2022-09-02T02:36:01.553Z,74.43
2022-09-02T02:37:01.531Z,74.63
2022-09-02T02:38:03.877Z,74.74
2022-09-02T02:39:01.438Z,75.04
2022-09-02T02:40:01.443Z,75.48
2022-09-02T02:41:01.396Z,76.19
2022-09-02T02:42:01.396Z,76.50
2022-09-02T02:43:01.425Z,77.10
2022-09-02T02:44:01.376Z,77.40
2022-09-02T02:45:01.369Z,77.61
2022-09-02T02:46:01.376Z,77.75
2022-09-02T02:47:01.392Z,77.75
2022-09-02T02:48:01.317Z,77.75
2022-09-02T02:49:01.368Z,77.95
2022-09-02T02:50:01.286Z,77.98
2022-09-02T02:51:01.294Z,77.54
2022-09-02T02:52:01.256Z,77.24
2022-09-02T02:53:01.246Z,76.93
2022-09-02T02:54:01.255Z,76.63
2022-09-02T02:55:01.238Z,76.63
2022-09-02T02:56:01.206Z,77.14
2022-09-02T02:57:01.202Z,77.03
2022-09-02T02:58:01.219Z,77.03
2022-09-02T02:59:01.208Z,77.24
2022-09-02T03:00:01.154Z,77.44
2022-09-02T03:01:01.168Z,77.64
2022-09-02T03:02:01.279Z,77.54
2022-09-02T03:03:01.173Z,77.48
2022-09-02T03:04:01.089Z,77.58
2022-09-02T03:05:01.085Z,77.58
2022-09-02T03:06:01.072Z,77.58
2022-09-02T03:07:01.077Z,77.68
2022-09-02T03:08:01.036Z,77.78
2022-09-02T03:09:01.038Z,77.88
2022-09-02T03:10:01.016Z,77.98
2022-09-02T03:11:01.007Z,78.08
2022-09-02T03:12:01.008Z,78.28
2022-09-02T03:13:01.022Z,78.39
2022-09-02T03:14:00.956Z,78.22
2022-09-02T03:15:00.958Z,78.53
2022-09-02T03:16:01.009Z,78.33
2022-09-02T03:17:00.925Z,78.22
2022-09-02T03:18:00.905Z,78.12
2022-09-02T03:19:00.934Z,78.12
2022-09-02T03:20:00.891Z,78.42
2022-09-02T03:21:00.874Z,78.83
2022-09-02T03:22:00.839Z,79.24
2022-09-02T03:23:00.847Z,78.83
2022-09-02T03:24:00.828Z,78.93
2022-09-02T03:25:00.856Z,79.24
2022-09-02T03:26:00.802Z,79.34
2022-09-02T03:27:00.811Z,79.78
2022-09-02T03:28:00.792Z,79.68
2022-09-02T03:29:00.745Z,79.58
2022-09-02T03:30:00.740Z,79.68
2022-09-02T03:31:00.772Z,80.08
2022-09-02T03:32:00.718Z,79.98
2022-09-02T03:33:04.127Z,79.98
2022-09-02T03:34:00.673Z,80.19
2022-09-02T03:35:00.666Z,80.29
2022-09-02T03:36:00.696Z,80.08
2022-09-02T03:37:00.650Z,80.08
2022-09-02T03:38:00.625Z,80.08
2022-09-02T03:39:00.596Z,80.19
2022-09-02T03:40:00.607Z,79.98
2022-09-02T03:41:00.577Z,80.08
2022-09-02T03:42:01.048Z,80.19
2022-09-02T03:43:00.827Z,79.98
2022-09-02T03:44:00.557Z,79.98
2022-09-02T03:45:00.521Z,80.08
2022-09-02T03:46:00.591Z,80.08
2022-09-02T03:47:00.503Z,80.08
2022-09-02T03:48:00.516Z,80.29
2022-09-02T03:49:00.505Z,80.29
2022-09-02T03:50:00.446Z,80.49
2022-09-02T03:51:00.453Z,80.59
2022-09-02T03:52:00.446Z,80.69
2022-09-02T03:53:00.451Z,80.93
2022-09-02T03:54:00.666Z,80.73
2022-09-02T03:55:00.406Z,80.83
2022-09-02T03:56:00.384Z,80.93
2022-09-02T03:57:00.354Z,80.83
2022-09-02T03:58:00.380Z,80.93
2022-09-02T03:59:00.379Z,81.04
2022-09-02T04:00:00.356Z,81.34
2022-09-02T04:01:00.391Z,81.24
2022-09-02T04:02:00.510Z,81.13
2022-09-02T04:03:00.387Z,81.34
2022-09-02T04:04:00.276Z,81.44
2022-09-02T04:05:00.255Z,81.54
2022-09-02T04:06:00.302Z,81.85
2022-09-02T04:07:00.227Z,82.25
2022-09-02T04:08:00.215Z,82.35
2022-09-02T04:09:00.200Z,82.56
2022-09-02T04:10:00.193Z,82.56
2022-09-02T04:11:00.196Z,83.10
2022-09-02T04:12:00.186Z,82.70
2022-09-02T04:13:00.175Z,82.80
2022-09-02T04:14:00.167Z,82.90
2022-09-02T04:15:00.143Z,82.59
2022-09-02T04:16:02.098Z,82.80
2022-09-02T04:17:00.103Z,82.90
2022-09-02T04:18:00.111Z,83.00
2022-09-02T04:19:00.097Z,83.10
2022-09-02T04:20:00.045Z,83.20
2022-09-02T04:21:00.029Z,83.14
2022-09-02T04:22:00.019Z,83.14
2022-09-02T04:23:00.010Z,83.24
2022-09-02T04:23:59.987Z,83.45
2022-09-02T04:25:00.138Z,83.45
2022-09-02T04:26:00.128Z,83.65
2022-09-02T04:27:04.097Z,83.65
2022-09-02T04:27:59.988Z,83.75
2022-09-02T04:28:59.996Z,83.79
2022-09-02T04:30:00.029Z,83.99
2022-09-02T04:31:00.047Z,83.99
2022-09-02T04:31:59.911Z,83.99
2022-09-02T04:32:59.920Z,83.99
2022-09-02T04:33:59.912Z,83.89
2022-09-02T04:34:59.859Z,83.99
2022-09-02T04:35:59.838Z,84.09
2022-09-02T04:36:59.887Z,84.30
2022-09-02T04:37:59.826Z,84.30
2022-09-02T04:38:59.815Z,84.30
2022-09-02T04:39:59.777Z,84.20
2022-09-02T04:40:59.772Z,84.30
2022-09-02T04:41:59.775Z,84.30
2022-09-02T04:42:59.757Z,84.40
2022-09-02T04:43:59.722Z,85.11
2022-09-02T04:44:59.716Z,84.91
2022-09-02T04:45:59.697Z,84.60
2022-09-02T04:46:59.675Z,84.70
2022-09-02T04:47:59.697Z,84.91
2022-09-02T04:48:59.667Z,84.91
2022-09-02T04:49:59.632Z,84.80
2022-09-02T04:50:59.687Z,84.60
2022-09-02T04:51:59.606Z,84.40
2022-09-02T04:52:59.594Z,84.30
2022-09-02T04:53:59.585Z,84.20
2022-09-02T04:54:59.608Z,84.20
2022-09-02T04:55:59.547Z,84.30
2022-09-02T04:56:59.536Z,84.20
2022-09-02T04:57:59.549Z,84.20
2022-09-02T04:58:59.524Z,84.40
2022-09-02T04:59:59.487Z,84.20
2022-09-02T05:00:59.553Z,84.40
2022-09-02T05:01:59.646Z,84.36
2022-09-02T05:02:59.534Z,84.16
2022-09-02T05:03:59.511Z,83.95
2022-09-02T05:04:59.445Z,84.05
2022-09-02T05:05:59.406Z,83.75
2022-09-02T05:06:59.476Z,83.45
2022-09-02T05:07:59.378Z,82.59
2022-09-02T05:08:59.389Z,81.95
2022-09-02T05:09:59.408Z,80.49
2022-09-02T05:10:59.358Z,79.03
2022-09-02T05:11:59.326Z,78.28
2022-09-02T05:12:59.346Z,77.54
2022-09-02T05:13:59.424Z,76.39
2022-09-02T05:14:59.306Z,75.89
2022-09-02T05:15:59.390Z,76.03
2022-09-02T05:17:01.796Z,76.67
2022-09-02T05:18:00.325Z,77.48
2022-09-02T05:18:59.248Z,77.92
2022-09-02T05:19:59.226Z,78.08
2022-09-02T05:20:59.279Z,77.28
2022-09-02T05:21:59.191Z,77.28
2022-09-02T05:22:59.219Z,76.97
2022-09-02T05:23:59.164Z,77.14
2022-09-02T05:24:59.157Z,75.99
2022-09-02T05:25:59.156Z,75.45
2022-09-02T05:32:03.191Z,75.31
2022-09-02T05:32:38.522Z,76.06
2022-09-02T05:33:38.512Z,76.87
2022-09-02T05:34:38.512Z,77.72
2022-09-02T05:35:38.544Z,77.72
2022-09-02T05:36:39.462Z,77.07
2022-09-02T05:37:38.505Z,76.73
2022-09-02T05:38:38.499Z,75.58
2022-09-02T05:39:38.434Z,74.63
2022-09-02T05:40:38.511Z,74.23
2022-09-02T05:41:38.408Z,73.59
2022-09-02T05:42:38.436Z,73.28
2022-09-02T05:43:38.404Z,73.19
2022-09-02T05:44:38.389Z,72.88
2022-09-02T05:45:38.414Z,73.83
2022-09-02T05:46:38.315Z,74.67
2022-09-02T05:47:38.359Z,75.76
2022-09-02T05:48:38.318Z,76.97
2022-09-02T05:49:38.315Z,77.61
2022-09-02T05:50:38.308Z,78.12
2022-09-02T05:51:38.254Z,78.02
2022-09-02T05:52:38.233Z,78.02
2022-09-02T05:53:38.234Z,77.41
2022-09-02T05:54:38.212Z,77.07
2022-09-02T05:55:38.203Z,76.67
2022-09-02T05:56:38.215Z,76.03
2022-09-02T05:57:38.225Z,76.03
2022-09-02T05:58:38.165Z,75.92
2022-09-02T05:59:38.185Z,75.62
2022-09-02T06:00:38.174Z,75.62
2022-09-02T06:01:38.167Z,75.52
2022-09-02T06:02:38.214Z,75.82
2022-09-02T06:03:38.095Z,75.72
2022-09-02T06:04:38.103Z,75.52
2022-09-02T06:05:38.104Z,75.07
2022-09-02T06:06:38.086Z,74.57
2022-09-02T06:07:38.055Z,74.57
2022-09-02T06:08:38.070Z,74.13
2022-09-02T06:09:38.036Z,73.72
2022-09-02T06:10:37.999Z,73.69
2022-09-02T06:11:37.985Z,73.90
2022-09-02T06:12:42.381Z,73.25
2022-09-02T06:13:37.974Z,72.21
2022-09-02T06:14:37.983Z,71.67
2022-09-02T06:15:38.027Z,70.76
2022-09-02T06:16:37.939Z,70.76
2022-09-02T06:17:37.907Z,71.60
2022-09-02T06:18:37.927Z,73.08
2022-09-02T06:19:37.904Z,74.13
2022-09-02T06:20:37.888Z,75.28
2022-09-02T06:21:37.887Z,75.31
2022-09-02T06:22:37.846Z,76.03
2022-09-02T06:23:37.827Z,75.92
2022-09-02T06:24:37.848Z,76.23
2022-09-02T06:25:37.807Z,76.73
2022-09-02T06:26:37.807Z,76.23
2022-09-02T06:27:37.820Z,76.43
2022-09-02T06:28:37.750Z,76.32
2022-09-02T06:29:37.747Z,76.23
2022-09-02T06:30:37.794Z,75.52
2022-09-02T06:31:37.736Z,75.62
2022-09-02T06:32:37.743Z,75.52
2022-09-02T06:33:37.689Z,75.68
2022-09-02T06:34:37.673Z,75.58
2022-09-02T06:35:37.676Z,75.07
2022-09-02T06:36:37.646Z,74.77
2022-09-02T06:37:37.638Z,74.77
2022-09-02T06:38:37.673Z,74.98
2022-09-02T06:39:37.615Z,74.98
2022-09-02T06:40:37.738Z,74.67
2022-09-02T06:41:37.647Z,74.87
2022-09-02T06:42:37.589Z,74.98
2022-09-02T06:43:42.223Z,75.38
2022-09-02T06:44:38.586Z,74.23
2022-09-02T06:45:37.529Z,74.13
2022-09-02T06:46:37.605Z,74.54
2022-09-02T06:47:37.510Z,74.23
2022-09-02T06:48:37.516Z,74.33
2022-09-02T06:49:37.465Z,74.63
2022-09-02T06:50:37.448Z,74.54
2022-09-02T06:51:37.489Z,74.54
2022-09-02T06:52:37.439Z,74.03
2022-09-02T06:53:37.429Z,74.13
2022-09-02T06:54:37.399Z,73.99
2022-09-02T06:55:37.398Z,74.50
2022-09-02T06:56:37.386Z,73.46
2022-09-02T06:57:37.401Z,73.55
2022-09-02T06:58:37.440Z,72.55
2022-09-02T06:59:37.372Z,72.44
2022-09-02T07:00:37.379Z,72.75
2022-09-02T07:01:37.473Z,72.31
2022-09-02T07:02:37.281Z,72.31
2022-09-02T07:03:37.317Z,71.80
2022-09-02T07:04:37.387Z,72.11
2022-09-02T07:05:37.279Z,72.41
2022-09-02T07:06:37.241Z,71.67
2022-09-02T07:07:37.210Z,71.06
2022-09-02T07:08:37.213Z,71.17
2022-09-02T07:09:37.232Z,71.33
2022-09-02T07:10:37.173Z,70.73
2022-09-02T07:11:37.165Z,70.66
2022-09-02T07:12:37.141Z,70.86
2022-09-02T07:13:37.130Z,70.86
2022-09-02T07:14:37.119Z,70.86
2022-09-02T07:15:37.130Z,71.26
2022-09-02T07:16:37.156Z,71.23
2022-09-02T07:17:37.099Z,70.42
2022-09-02T07:18:37.071Z,70.12
2022-09-02T07:19:37.051Z,70.22
2022-09-02T07:20:37.033Z,70.59
2022-09-02T07:21:37.061Z,69.99
2022-09-02T07:22:36.999Z,70.69
2022-09-02T07:23:40.560Z,69.35
2022-09-02T07:24:37.021Z,68.41
2022-09-02T07:25:36.992Z,68.01
2022-09-02T07:26:36.953Z,68.28
2022-09-02T07:27:36.978Z,67.17
2022-09-02T07:28:36.920Z,66.87
2022-09-02T07:29:36.924Z,66.53
2022-09-02T07:30:36.948Z,66.03
2022-09-02T07:31:36.910Z,66.63
2022-09-02T07:32:36.888Z,65.19
2022-09-02T07:33:36.874Z,65.39
2022-09-02T07:34:36.860Z,64.79
2022-09-02T07:35:36.918Z,64.29
2022-09-02T07:36:36.850Z,64.56
2022-09-02T07:37:36.811Z,63.96
2022-09-02T07:38:36.805Z,63.76
2022-09-02T07:39:36.781Z,63.02
2022-09-02T07:40:36.802Z,63.42
2022-09-02T07:41:36.767Z,62.69
2022-09-02T07:42:36.740Z,62.49
2022-09-02T07:43:36.721Z,62.08
2022-09-02T07:44:36.712Z,62.42
2022-09-02T07:45:36.762Z,62.79
2022-09-02T07:46:36.725Z,61.91
2022-09-02T07:47:36.799Z,61.88
2022-09-02T07:48:36.658Z,62.32
2022-09-02T07:50:37.669Z,61.69
2022-09-02T07:51:36.615Z,61.29
2022-09-02T07:52:36.651Z,61.99
2022-09-02T07:53:36.592Z,61.18
2022-09-02T07:54:36.592Z,61.29
2022-09-02T07:55:36.563Z,60.85
2022-09-02T07:56:36.542Z,60.25
2022-09-02T07:57:36.534Z,60.96
2022-09-02T07:58:36.603Z,60.65
2022-09-02T07:59:36.549Z,60.75
2022-09-02T08:00:36.492Z,60.22
2022-09-02T08:01:36.645Z,60.42
2022-09-02T08:02:36.527Z,60.12
2022-09-02T08:03:36.451Z,59.52
2022-09-02T08:04:36.459Z,59.32
2022-09-02T08:05:36.541Z,59.42
2022-09-02T08:06:36.412Z,60.42
2022-09-02T08:07:36.431Z,59.89
2022-09-02T08:08:36.382Z,58.79
2022-09-02T08:09:36.414Z,58.89
2022-09-02T08:10:36.342Z,58.89
2022-09-02T08:11:36.355Z,58.99
2022-09-02T08:12:36.342Z,58.99
2022-09-02T08:13:36.336Z,58.29
2022-09-02T08:14:36.324Z,58.36
2022-09-02T08:15:36.293Z,58.66
2022-09-02T08:16:36.344Z,57.96
2022-09-02T08:17:36.294Z,57.79
2022-09-02T08:18:36.252Z,58.09
2022-09-02T08:19:36.317Z,58.29
2022-09-02T08:20:36.224Z,58.09
2022-09-02T08:21:36.261Z,58.29
2022-09-02T08:22:36.221Z,58.18
2022-09-02T08:23:37.530Z,58.39
2022-09-02T08:24:36.183Z,58.39
2022-09-02T08:25:36.165Z,58.39
2022-09-02T08:26:36.144Z,58.79
2022-09-02T08:27:36.137Z,58.26
2022-09-02T08:28:36.196Z,57.96
2022-09-02T08:29:36.137Z,57.96
2022-09-02T08:30:36.084Z,57.76
2022-09-02T08:31:36.120Z,57.53
2022-09-02T08:32:36.085Z,57.33
2022-09-02T08:33:36.057Z,57.13
2022-09-02T08:34:36.101Z,56.52
2022-09-02T08:35:50.634Z,56.10
2022-09-02T08:36:47.573Z,54.60
2022-09-02T08:37:37.004Z,55.10
2022-09-02T08:38:35.993Z,54.32
2022-09-02T08:39:36.000Z,55.10
2022-09-02T08:40:36.006Z,55.30
2022-09-02T08:41:35.994Z,54.70
2022-09-02T08:42:35.975Z,54.27
2022-09-02T08:43:35.927Z,54.87
2022-09-02T08:44:35.909Z,53.14
2022-09-02T08:45:35.910Z,52.84
2022-09-02T08:46:35.907Z,52.94
2022-09-02T08:47:35.920Z,52.57
2022-09-02T08:48:35.867Z,52.67
2022-09-02T08:49:35.865Z,52.09
2022-09-02T08:50:35.807Z,52.80
2022-09-02T08:51:37.585Z,52.67
2022-09-02T08:52:35.776Z,53.47
2022-09-02T08:53:35.808Z,53.17
2022-09-02T08:54:35.776Z,52.57
2022-09-02T08:55:35.750Z,52.04
2022-09-02T08:56:35.727Z,52.64
2022-09-02T08:57:35.753Z,51.54
2022-09-02T08:58:36.706Z,51.72
2022-09-02T08:59:35.739Z,51.72
2022-09-02T09:00:35.702Z,51.32
2022-09-02T09:01:35.732Z,50.82
2022-09-02T09:02:35.801Z,51.22
2022-09-02T09:03:35.647Z,50.72
2022-09-02T09:04:35.633Z,50.84
2022-09-02T09:05:35.608Z,50.94
2022-09-02T09:06:35.609Z,51.14
2022-09-02T09:08:35.561Z,50.82
2022-09-02T09:09:35.547Z,50.92
2022-09-02T09:10:35.538Z,50.12
2022-09-02T09:11:35.518Z,49.62
2022-09-02T09:12:35.524Z,49.91
2022-09-02T09:13:38.294Z,50.32
2022-09-02T09:14:36.476Z,50.22
2022-09-02T09:15:35.473Z,50.82
2022-09-02T09:16:35.547Z,49.69
2022-09-02T09:17:35.439Z,50.12
2022-09-02T09:18:35.418Z,50.12
2022-09-02T09:19:35.453Z,51.22
2022-09-02T09:20:35.489Z,50.22
2022-09-02T09:21:35.436Z,50.92
2022-09-02T09:22:35.369Z,50.59
2022-09-02T09:23:35.368Z,50.42
2022-09-02T09:24:35.378Z,50.82
2022-09-02T09:25:35.389Z,50.20
2022-09-02T09:26:35.319Z,49.90
2022-09-02T09:27:35.321Z,48.99
2022-09-02T09:28:35.280Z,49.09
2022-09-02T09:29:35.278Z,49.67
2022-09-02T09:30:35.277Z,49.59
2022-09-02T09:31:35.332Z,50.20
2022-09-02T09:32:35.240Z,50.37
2022-09-02T09:33:35.267Z,49.87
2022-09-02T09:34:35.219Z,50.17
2022-09-02T09:35:35.249Z,50.20
2022-09-02T09:36:35.180Z,50.39
2022-09-02T09:37:36.309Z,50.59
2022-09-02T09:38:35.300Z,50.59
2022-09-02T09:39:35.182Z,49.37
2022-09-02T09:40:35.233Z,48.90
2022-09-02T09:41:35.153Z,49.09
2022-09-02T09:42:35.115Z,49.19
2022-09-02T09:43:35.158Z,48.87
2022-09-02T09:44:35.080Z,48.17
2022-09-02T09:45:35.622Z,48.37
2022-09-02T09:46:35.133Z,48.07
2022-09-02T09:47:35.063Z,47.99
2022-09-02T09:48:35.040Z,47.99
2022-09-02T09:49:35.070Z,48.39
2022-09-02T09:50:35.014Z,47.99
2022-09-02T09:51:49.802Z,47.60
2022-09-02T09:52:36.046Z,47.69
2022-09-02T09:53:34.970Z,47.89
2022-09-02T09:54:35.020Z,47.67
2022-09-02T09:55:38.072Z,48.07
2022-09-02T09:56:37.426Z,47.15
2022-09-02T09:57:35.603Z,46.85
2022-09-02T09:58:34.911Z,46.57
2022-09-02T09:59:34.891Z,46.87
2022-09-02T10:01:38.598Z,45.95
2022-09-02T10:02:38.622Z,46.85
2022-09-02T10:03:39.961Z,45.83
2022-09-02T10:04:45.670Z,45.40
2022-09-02T10:05:39.455Z,44.41
2022-09-02T10:06:38.480Z,44.03
2022-09-02T10:07:38.479Z,44.03
2022-09-02T10:08:38.530Z,44.35
2022-09-02T10:09:38.417Z,44.53
2022-09-02T10:10:38.388Z,43.83
2022-09-02T10:11:46.560Z,42.91
2022-09-02T10:12:39.408Z,42.81
2022-09-02T10:13:38.348Z,42.93
2022-09-02T10:14:38.368Z,42.93
2022-09-02T10:15:38.430Z,43.73
2022-09-02T10:16:38.441Z,43.03
2022-09-02T10:17:38.386Z,43.43
2022-09-02T10:18:38.334Z,43.45
2022-09-02T10:19:38.265Z,43.13
2022-09-02T10:20:44.598Z,42.83
2022-09-02T10:21:41.981Z,42.24
2022-09-02T10:22:58.911Z,42.51
2022-09-02T10:23:39.267Z,42.51
2022-09-02T10:24:47.980Z,42.43
2022-09-02T10:25:38.189Z,42.54
2022-09-02T10:26:38.186Z,42.91
2022-09-02T10:27:38.157Z,42.21
2022-09-02T10:28:38.178Z,42.21
2022-09-02T10:29:38.173Z,42.40
2022-09-02T10:30:38.121Z,41.09
2022-09-02T10:31:38.219Z,41.50
2022-09-02T10:32:38.129Z,41.50
2022-09-02T10:33:38.113Z,40.30
2022-09-02T10:34:38.160Z,41.19
2022-09-02T10:35:38.126Z,41.19
2022-09-02T10:36:38.089Z,40.89
2022-09-02T10:37:38.064Z,40.70
2022-09-02T10:38:38.019Z,41.00
2022-09-02T10:39:38.018Z,40.80
2022-09-02T10:40:38.023Z,40.40
2022-09-02T10:41:38.149Z,41.47
2022-09-02T10:42:39.028Z,40.48
2022-09-02T10:43:37.972Z,39.98
2022-09-02T10:44:37.988Z,39.48
2022-09-02T10:45:37.977Z,40.38
2022-09-02T10:46:37.940Z,40.28
2022-09-02T10:47:37.905Z,39.88
2022-09-02T10:48:37.924Z,39.78
2022-09-02T10:49:37.887Z,39.38
2022-09-02T10:50:37.883Z,39.60
2022-09-02T10:51:37.875Z,39.62
2022-09-02T10:52:37.889Z,40.10
2022-09-02T10:53:37.818Z,39.30
2022-09-02T10:54:37.847Z,40.00
2022-09-02T10:55:37.815Z,40.80
2022-09-02T10:56:37.800Z,40.00
2022-09-02T10:57:37.779Z,40.30
2022-09-02T10:58:56.587Z,40.00
2022-09-02T10:59:38.911Z,40.00
2022-09-02T11:00:37.903Z,40.20
2022-09-02T11:01:37.859Z,39.80
2022-09-02T11:02:37.703Z,40.59
2022-09-02T11:03:37.738Z,40.20
2022-09-02T11:04:37.872Z,40.38
2022-09-02T11:05:37.803Z,39.88
2022-09-02T11:06:52.042Z,39.70
2022-09-02T11:07:38.631Z,40.59
2022-09-02T11:08:37.691Z,40.40
2022-09-02T11:09:37.621Z,40.08
2022-09-02T11:10:37.594Z,40.20
2022-09-02T11:12:00.399Z,40.48
2022-09-02T11:12:37.585Z,39.90
2022-09-02T11:13:37.583Z,40.40
2022-09-02T11:14:37.602Z,39.80
2022-09-02T11:15:37.542Z,39.68
2022-09-02T11:17:37.523Z,40.38
2022-09-02T11:18:37.511Z,39.44
2022-09-02T11:19:37.485Z,39.04
2022-09-02T11:20:37.473Z,39.56
2022-09-02T11:22:01.591Z,39.26
2022-09-02T11:22:38.469Z,39.58
2022-09-02T11:23:37.394Z,40.18
2022-09-02T11:24:37.418Z,39.96
2022-09-02T11:25:37.393Z,40.16
2022-09-02T11:26:37.361Z,39.96
2022-09-02T11:27:44.613Z,40.36
2022-09-02T11:28:38.370Z,39.66
2022-09-02T11:29:37.325Z,39.06
2022-09-02T11:30:37.356Z,39.48
2022-09-02T11:31:39.240Z,39.78
2022-09-02T11:32:37.418Z,40.16
2022-09-02T11:33:37.297Z,40.06
2022-09-02T11:34:37.288Z,39.12
2022-09-02T11:35:37.267Z,38.93
2022-09-02T11:36:37.247Z,38.35
2022-09-02T11:37:37.222Z,38.54
2022-09-02T11:38:37.185Z,39.14
2022-09-02T11:39:53.961Z,38.95
2022-09-02T11:40:39.069Z,38.65
2022-09-02T11:41:37.900Z,39.14
2022-09-02T11:42:37.177Z,38.35
2022-09-02T11:43:42.748Z,38.86
2022-09-02T11:44:37.221Z,38.67
2022-09-02T11:45:37.336Z,38.86
2022-09-02T11:46:37.167Z,38.67
2022-09-02T11:47:37.791Z,38.37
2022-09-02T11:48:38.172Z,39.16
2022-09-02T11:49:37.094Z,38.96
2022-09-02T11:50:39.202Z,39.34
2022-09-02T11:51:37.019Z,38.82
2022-09-02T11:52:37.043Z,37.45
2022-09-02T11:53:37.027Z,38.25
2022-09-02T11:54:37.005Z,38.84
2022-09-02T11:55:36.981Z,38.65
2022-09-02T11:56:37.112Z,38.54
2022-09-02T11:57:36.938Z,38.35
2022-09-02T11:58:36.926Z,38.75
2022-09-02T11:59:36.960Z,39.25
2022-09-02T12:01:03.156Z,39.92
2022-09-02T12:01:36.938Z,38.13
2022-09-02T12:02:37.876Z,38.53
2022-09-02T12:03:50.132Z,38.23
2022-09-02T12:04:59.271Z,37.93
2022-09-02T12:05:38.205Z,38.23
2022-09-02T12:06:36.946Z,37.95
2022-09-02T12:07:36.856Z,37.85
2022-09-02T12:08:36.828Z,37.95
2022-09-02T12:09:36.789Z,38.45
2022-09-02T12:10:36.788Z,38.75
2022-09-02T12:11:36.808Z,38.65
2022-09-02T12:12:36.853Z,38.33
2022-09-02T12:13:36.793Z,38.31
2022-09-02T12:14:36.776Z,37.32
2022-09-02T12:15:37.017Z,37.43
2022-09-02T12:16:36.808Z,37.55
2022-09-02T12:18:46.603Z,37.65
2022-09-02T12:19:46.552Z,38.05
2022-09-02T12:20:51.118Z,37.55
2022-09-02T12:21:47.574Z,37.43
2022-09-02T12:22:46.521Z,37.83
2022-09-02T12:23:46.465Z,37.73
2022-09-02T12:24:46.502Z,36.82
2022-09-02T12:25:46.489Z,36.82
2022-09-02T12:26:46.581Z,36.82
2022-09-02T12:27:46.422Z,38.41
2022-09-02T12:28:46.452Z,37.41
2022-09-02T12:29:46.558Z,37.32
2022-09-02T12:30:46.487Z,37.71
2022-09-02T12:31:46.482Z,37.49
2022-09-02T12:32:46.353Z,37.70
2022-09-02T12:33:46.391Z,36.60
2022-09-02T12:34:46.423Z,36.90
2022-09-02T12:35:46.439Z,37.40
2022-09-02T12:36:46.331Z,36.68
2022-09-02T12:37:46.383Z,36.22
2022-09-02T12:38:46.320Z,37.02
2022-09-02T12:39:46.295Z,36.93
2022-09-02T12:40:46.424Z,37.23
2022-09-02T12:41:46.528Z,37.21
2022-09-02T12:42:46.712Z,37.30
2022-09-02T12:43:46.220Z,36.90
2022-09-02T12:44:46.212Z,37.10
2022-09-02T12:45:46.226Z,36.68
2022-09-02T12:46:46.217Z,36.58
2022-09-02T12:47:46.210Z,36.70
2022-09-02T12:48:46.144Z,36.90
2022-09-02T12:49:46.230Z,36.52
2022-09-02T12:50:46.141Z,37.41
2022-09-02T12:51:46.152Z,36.92
2022-09-02T12:52:46.174Z,37.51
2022-09-02T12:53:46.166Z,37.12
2022-09-02T12:54:46.155Z,37.00
2022-09-02T12:56:56.104Z,36.92
2022-09-02T12:57:55.952Z,36.72
2022-09-02T12:59:00.217Z,37.21
2022-09-02T12:59:56.952Z,36.72
2022-09-02T13:00:55.951Z,36.72
2022-09-02T13:02:00.968Z,37.40
2022-09-02T13:02:55.902Z,36.40
2022-09-02T13:03:56.016Z,36.60